Time;durP1;ratioP1;P1;durP2;ratioP2;P2;SDS_P1;SDS_P2;PMS_P1;PMS_P2;Temp;Humidity;BMP_temperature;BMP_pressure;BME280_temperature;BME280_humidity;BME280_pressure;Samples;Min_cycle;Max_cycle;Signal;HPM_P1;HPM_P2
2022/07/25 00:00:16;;;;;;;11.50;5.00;;;;;;;28.82;32.28;98452.56;5051280;28;20029;-48
2022/07/25 00:02:42;;;;;;;6.53;4.50;;;;;;;28.91;31.86;98447.09;5051337;28;20108;-48
2022/07/25 00:05:08;;;;;;;7.53;4.55;;;;;;;28.87;31.77;98443.47;5051237;28;20056;-48
2022/07/25 00:07:33;;;;;;;6.60;4.95;;;;;;;28.81;32.28;98448.28;5051170;28;20028;-47
2022/07/25 00:09:59;;;;;;;11.82;4.80;;;;;;;28.80;32.25;98437.81;5051172;28;20447;-48
2022/07/25 00:12:25;;;;;;;9.70;4.65;;;;;;;28.77;31.90;98443.88;5051097;28;20021;-49
2022/07/25 00:14:51;;;;;;;5.57;4.47;;;;;;;28.65;32.26;98447.25;5051212;28;20013;-47
2022/07/25 00:17:17;;;;;;;5.70;5.15;;;;;;;28.60;32.41;98456.34;5051021;28;20104;-48
2022/07/25 00:19:42;;;;;;;6.63;4.50;;;;;;;28.59;32.83;98452.03;5051031;28;20051;-48
2022/07/25 00:22:08;;;;;;;6.45;4.28;;;;;;;28.57;33.04;98440.78;5051113;28;20029;-48
2022/07/25 00:24:34;;;;;;;9.00;4.43;;;;;;;28.55;32.92;98458.44;5061738;28;20083;-48
2022/07/25 00:26:59;;;;;;;10.93;5.28;;;;;;;28.47;33.28;98452.72;5073106;28;20135;-48
2022/07/25 00:29:25;;;;;;;9.85;4.45;;;;;;;28.44;33.26;98439.88;5073302;28;20016;-47
2022/07/25 00:31:51;;;;;;;7.90;4.47;;;;;;;28.55;33.57;98440.31;5091997;28;20035;-48
2022/07/25 00:34:16;;;;;;;9.73;5.30;;;;;;;28.48;33.63;98442.72;5076634;28;20028;-48
2022/07/25 00:36:42;;;;;;;4.65;4.18;;;;;;;28.38;33.25;98445.78;5094827;28;20052;-47
2022/07/25 00:39:08;;;;;;;14.57;5.03;;;;;;;28.35;34.24;98447.19;5076570;28;20035;-48
2022/07/25 00:41:34;;;;;;;11.20;5.60;;;;;;;28.38;33.66;98440.38;5076551;28;20035;-48
2022/07/25 00:44:00;;;;;;;5.00;4.40;;;;;;;28.41;33.45;98445.13;5094688;28;20024;-48
2022/07/25 00:46:25;;;;;;;10.15;4.70;;;;;;;28.33;33.77;98437.84;5094665;28;20077;-48
2022/07/25 00:48:51;;;;;;;11.30;5.00;;;;;;;28.34;34.13;98451.03;5094650;28;20059;-48
2022/07/25 00:51:17;;;;;;;7.25;4.80;;;;;;;28.41;33.65;98440.53;5094797;28;20485;-48
2022/07/25 00:53:44;;;;;;;10.75;5.68;;;;;;;28.51;34.33;98433.19;5094445;28;20024;-48
2022/07/25 00:56:10;;;;;;;6.10;4.97;;;;;;;28.62;33.85;98426.31;5094443;28;20027;-48
2022/07/25 00:58:35;;;;;;;7.85;4.85;;;;;;;28.59;33.92;98429.66;5094409;28;20028;-49
2022/07/25 01:01:03;;;;;;;7.53;4.95;;;;;;;28.47;34.18;98439.22;5094425;28;20104;-48
2022/07/25 01:03:29;;;;;;;10.48;4.88;;;;;;;28.33;34.22;98432.44;5094244;28;20405;-48
2022/07/25 01:05:55;;;;;;;7.13;5.05;;;;;;;28.35;34.43;98433.69;5094357;28;20024;-48
2022/07/25 01:08:21;;;;;;;5.50;4.97;;;;;;;28.36;34.32;98434.53;5094319;28;20050;-48
2022/07/25 01:10:49;;;;;;;5.13;4.63;;;;;;;28.38;34.56;98421.50;5076010;28;20035;-48
2022/07/25 01:13:15;;;;;;;8.98;4.90;;;;;;;28.36;34.45;98443.41;5094137;28;20107;-48
2022/07/25 01:15:44;;;;;;;8.95;5.07;;;;;;;28.34;34.49;98434.84;5094428;28;20103;-48
2022/07/25 01:18:09;;;;;;;6.22;4.97;;;;;;;28.24;34.87;98432.50;5075876;28;20028;-47
2022/07/25 01:20:35;;;;;;;12.68;5.57;;;;;;;28.23;34.98;98439.81;5094012;28;20466;-48
2022/07/25 01:23:01;;;;;;;12.35;5.20;;;;;;;28.24;34.74;98446.78;5075562;28;20135;-48
2022/07/25 01:25:27;;;;;;;13.07;6.05;;;;;;;28.27;35.45;98440.75;5093830;28;20016;-48
2022/07/25 01:27:54;;;;;;;8.85;5.18;;;;;;;28.35;34.85;98436.41;5093796;28;20100;-48
2022/07/25 01:30:21;;;;;;;10.25;4.78;;;;;;;28.40;35.16;98446.25;5075633;28;20462;-49
2022/07/25 01:32:47;;;;;;;9.45;4.80;;;;;;;28.52;34.96;98430.19;5093781;28;20013;-49
2022/07/25 01:35:14;;;;;;;6.30;4.97;;;;;;;28.55;34.72;98434.13;5093735;28;20031;-49
2022/07/25 01:37:40;;;;;;;8.88;5.25;;;;;;;28.46;35.23;98432.25;5093673;28;20020;-49
2022/07/25 01:40:07;;;;;;;9.18;5.07;;;;;;;28.39;35.31;98436.56;5093609;28;20498;-49
2022/07/25 01:42:33;;;;;;;9.98;4.95;;;;;;;28.27;35.25;98435.34;5093590;28;20031;-50
2022/07/25 01:44:59;;;;;;;5.38;4.50;;;;;;;28.20;35.56;98439.66;5093542;28;20034;-49
2022/07/25 01:47:25;;;;;;;8.93;5.47;;;;;;;28.18;35.35;98441.88;5075309;28;20501;-49
2022/07/25 01:49:51;;;;;;;8.27;4.90;;;;;;;28.14;35.28;98441.72;5093457;28;20048;-49
2022/07/25 01:52:16;;;;;;;7.15;5.22;;;;;;;28.09;36.97;98441.91;5093300;28;20028;-50
2022/07/25 01:54:42;;;;;;;6.93;4.95;;;;;;;28.03;36.67;98435.91;5093339;28;20489;-50
2022/07/25 01:57:09;;;;;;;5.25;4.53;;;;;;;28.05;35.90;98443.66;5093294;28;20078;-49
2022/07/25 01:59:39;;;;;;;11.27;5.63;;;;;;;28.05;37.40;98422.88;5058350;28;20036;-49
2022/07/25 02:02:07;;;;;;;6.30;4.28;;;;;;;28.03;36.02;98425.13;5093197;28;20103;-50
2022/07/25 02:04:34;;;;;;;6.32;4.88;;;;;;;27.95;36.26;98428.63;5093184;28;20020;-48
2022/07/25 02:07:00;;;;;;;5.13;4.30;;;;;;;28.03;36.11;98427.00;5074872;28;20034;-50
2022/07/25 02:09:26;;;;;;;16.50;5.13;;;;;;;28.13;35.86;98426.66;5074917;28;20031;-49
2022/07/25 02:11:51;;;;;;;6.82;4.53;;;;;;;28.15;35.29;98419.03;5074769;28;20024;-49
2022/07/25 02:14:17;;;;;;;8.00;5.10;;;;;;;28.15;35.43;98434.41;5092927;28;20043;-50
2022/07/25 02:16:43;;;;;;;16.30;5.40;;;;;;;28.23;35.68;98415.53;5092906;28;20035;-49
2022/07/25 02:19:08;;;;;;;12.65;5.13;;;;;;;28.24;35.77;98419.78;5074655;28;20032;-49
2022/07/25 02:21:34;;;;;;;10.15;5.10;;;;;;;28.29;35.56;98413.41;5092788;28;20020;-49
2022/07/25 02:24:00;;;;;;;12.20;5.28;;;;;;;28.31;36.22;98419.28;5092469;28;20083;-49
2022/07/25 02:26:25;;;;;;;7.65;4.72;;;;;;;28.83;35.36;98412.84;5092723;28;20055;-49
2022/07/25 02:28:51;;;;;;;11.82;4.70;;;;;;;28.86;34.53;98415.69;5092698;28;20024;-49
2022/07/25 02:31:17;;;;;;;13.02;5.68;;;;;;;28.95;34.86;98409.44;5074390;28;20055;-49
2022/07/25 02:33:43;;;;;;;6.82;4.97;;;;;;;29.03;34.62;98403.16;5092516;28;20028;-49
2022/07/25 02:36:09;;;;;;;5.82;4.25;;;;;;;29.13;34.35;98404.72;5092542;28;20012;-49
2022/07/25 02:38:35;;;;;;;11.00;4.85;;;;;;;29.14;35.00;98411.69;5074333;28;20028;-49
2022/07/25 02:41:00;;;;;;;11.55;4.65;;;;;;;29.24;34.24;98401.28;5092424;28;20027;-49
2022/07/25 02:43:26;;;;;;;8.50;4.90;;;;;;;29.18;33.76;98396.44;5092461;28;20054;-49
2022/07/25 02:45:52;;;;;;;6.28;4.60;;;;;;;28.97;34.05;98399.88;5092473;28;20028;-50
2022/07/25 02:48:17;;;;;;;8.38;4.40;;;;;;;28.73;34.46;98397.81;5074165;28;20043;-49
2022/07/25 02:50:43;;;;;;;8.48;4.75;;;;;;;28.62;34.63;98407.41;5092293;28;20031;-49
2022/07/25 02:53:09;;;;;;;16.98;5.82;;;;;;;28.64;35.49;98411.38;5074077;28;20047;-50
2022/07/25 02:55:34;;;;;;;14.75;5.78;;;;;;;28.91;35.58;98400.41;5091791;28;20157;-49
2022/07/25 02:58:03;;;;;;;15.85;6.78;;;;;;;29.66;34.11;98403.94;5092259;28;20077;-49
2022/07/25 03:00:29;;;;;;;8.43;4.72;;;;;;;29.82;33.08;98414.13;5092465;28;20393;-50
2022/07/25 03:02:55;;;;;;;5.55;4.35;;;;;;;29.66;33.13;98411.22;5092157;28;20032;-50
2022/07/25 03:05:21;;;;;;;11.38;5.25;;;;;;;29.51;34.38;98403.75;5092124;28;20501;-49
2022/07/25 03:07:46;;;;;;;9.77;4.90;;;;;;;29.74;33.84;98402.28;5092154;28;20032;-49
2022/07/25 03:10:13;;;;;;;9.48;4.80;;;;;;;29.95;33.20;98394.09;5092022;28;20034;-50
2022/07/25 03:12:40;;;;;;;7.38;5.03;;;;;;;30.00;33.05;98402.00;5073828;28;20099;-50
2022/07/25 03:15:06;;;;;;;8.30;4.75;;;;;;;29.94;32.56;98406.06;5092014;28;20044;-50
2022/07/25 03:17:32;;;;;;;7.25;4.75;;;;;;;29.53;33.16;98407.72;5092015;28;20099;-49
2022/07/25 03:19:58;;;;;;;15.48;5.88;;;;;;;29.58;34.08;98407.50;5091948;28;20116;-50
2022/07/25 03:22:24;;;;;;;6.28;4.20;;;;;;;29.78;33.04;98413.22;5073690;28;20039;-49
2022/07/25 03:24:50;;;;;;;8.90;4.53;;;;;;;29.59;33.40;98400.97;5071751;28;20040;-49
2022/07/25 03:27:16;;;;;;;12.27;6.05;;;;;;;29.45;33.96;98411.28;5071632;28;20020;-50
2022/07/25 03:29:42;;;;;;;7.88;4.60;;;;;;;29.62;33.56;98407.59;5071769;28;20024;-50
2022/07/25 03:32:08;;;;;;;11.27;5.43;;;;;;;29.74;33.52;98406.88;5071647;28;20039;-49
2022/07/25 03:34:35;;;;;;;8.18;4.20;;;;;;;29.65;33.17;98409.66;5071697;28;20025;-49
2022/07/25 03:37:01;;;;;;;12.68;5.22;;;;;;;29.33;33.75;98403.91;5053565;28;20021;-49
2022/07/25 03:39:30;;;;;;;14.75;5.70;;;;;;;29.71;33.87;98402.13;5071618;28;20025;-50
2022/07/25 03:41:59;;;;;;;16.67;5.70;;;;;;;29.99;32.46;98400.41;5070274;28;20028;-50
2022/07/25 03:44:25;;;;;;;15.48;4.75;;;;;;;29.65;33.12;98396.91;5071657;28;20025;-50
2022/07/25 03:46:50;;;;;;;39.72;6.47;;;;;;;29.28;33.54;98410.31;5071567;28;20509;-50
2022/07/25 03:49:17;;;;;;;16.85;5.15;;;;;;;29.04;34.04;98410.16;5071520;28;20054;-50
2022/07/25 03:51:43;;;;;;;44.30;8.50;;;;;;;28.76;35.16;98415.28;5070119;28;20052;-49
2022/07/25 03:54:12;;;;;;;42.72;8.27;;;;;;;28.76;34.92;98407.19;5070162;28;20143;-49
2022/07/25 03:56:43;;;;;;;21.92;5.65;;;;;;;29.09;34.70;98409.97;5071427;28;20067;-49
2022/07/25 03:59:12;;;;;;;11.63;5.18;;;;;;;29.03;34.66;98408.56;5070101;28;20472;-49
2022/07/25 04:01:37;;;;;;;27.48;6.90;;;;;;;29.00;34.48;98406.53;5071933;28;20383;-49
2022/07/25 04:04:04;;;;;;;56.28;9.65;;;;;;;29.23;35.04;98401.63;5071331;28;20025;-50
2022/07/25 04:06:30;;;;;;;26.75;5.90;;;;;;;29.65;33.65;98410.44;5071687;28;20048;-49
2022/07/25 04:08:57;;;;;;;13.25;5.30;;;;;;;29.57;34.28;98411.31;5073876;28;20115;-50
2022/07/25 04:11:22;;;;;;;23.40;6.53;;;;;;;29.48;33.75;98400.59;5075103;28;20027;-50
2022/07/25 04:13:49;;;;;;;23.35;6.55;;;;;;;29.35;34.08;98401.66;5075047;28;20025;-49
2022/07/25 04:16:15;;;;;;;30.90;7.72;;;;;;;29.42;34.78;98409.25;5073726;28;20028;-49
2022/07/25 04:18:41;;;;;;;46.78;9.48;;;;;;;29.58;34.50;98404.81;5075001;28;20397;-50
2022/07/25 04:21:07;;;;;;;30.35;8.13;;;;;;;29.91;33.62;98412.13;5074906;28;20025;-48
2022/07/25 04:23:33;;;;;;;14.88;7.07;;;;;;;30.13;33.29;98408.22;5084410;28;20039;-50
2022/07/25 04:25:59;;;;;;;22.42;6.60;;;;;;;30.18;33.54;98409.91;5095054;28;20099;-50
2022/07/25 04:28:25;;;;;;;17.38;6.85;;;;;;;30.47;32.77;98411.66;5095021;28;20489;-49
2022/07/25 04:30:51;;;;;;;45.47;8.35;;;;;;;30.10;33.27;98408.88;5076773;28;20573;-50
2022/07/25 04:33:17;;;;;;;13.65;5.85;;;;;;;29.74;33.14;98417.72;5094878;28;20099;-50
2022/07/25 04:35:42;;;;;;;22.95;5.90;;;;;;;29.20;34.40;98413.88;5094884;28;20402;-49
2022/07/25 04:38:08;;;;;;;15.60;7.00;;;;;;;29.02;34.76;98415.13;5076619;28;20025;-49
2022/07/25 04:40:34;;;;;;;25.30;5.63;;;;;;;28.96;34.75;98422.63;5094795;28;20024;-49
2022/07/25 04:43:00;;;;;;;21.92;5.80;;;;;;;29.17;35.15;98411.03;5076563;28;20032;-49
2022/07/25 04:45:25;;;;;;;21.17;6.68;;;;;;;29.26;35.51;98407.16;5094765;28;20497;-50
2022/07/25 04:47:52;;;;;;;10.35;5.50;;;;;;;29.63;34.39;98410.00;5076499;28;20053;-49
2022/07/25 04:50:17;;;;;;;36.42;7.93;;;;;;;30.15;33.99;98407.88;5094647;28;20023;-50
2022/07/25 04:52:43;;;;;;;10.57;5.07;;;;;;;30.91;32.57;98414.56;5076326;28;20028;-49
2022/07/25 04:55:09;;;;;;;30.17;6.68;;;;;;;31.62;31.65;98402.22;5076294;28;20013;-50
2022/07/25 04:57:35;;;;;;;31.45;7.10;;;;;;;32.24;30.75;98410.81;5076352;28;20047;-50
2022/07/25 05:00:06;;;;;;;13.73;5.32;;;;;;;32.57;29.36;98420.50;5094465;28;20020;-50
2022/07/25 05:02:33;;;;;;;48.58;8.75;;;;;;;32.87;29.80;98416.50;5094525;28;20037;-49
2022/07/25 05:04:59;;;;;;;29.88;6.78;;;;;;;33.07;28.94;98420.81;5076186;28;20028;-50
2022/07/25 05:07:25;;;;;;;26.83;5.85;;;;;;;32.81;29.54;98429.59;5076125;28;20034;-49
2022/07/25 05:09:50;;;;;;;16.95;5.65;;;;;;;32.08;30.18;98426.31;5094242;28;20874;-49
2022/07/25 05:12:16;;;;;;;13.65;5.75;;;;;;;31.79;30.95;98424.75;5075957;28;20115;-50
2022/07/25 05:14:42;;;;;;;30.05;7.50;;;;;;;32.00;31.53;98425.34;5075941;28;20024;-50
2022/07/25 05:17:07;;;;;;;16.63;5.13;;;;;;;32.54;30.51;98414.97;5093919;28;20123;-49
2022/07/25 05:19:33;;;;;;;23.20;6.40;;;;;;;33.14;29.13;98420.22;5093875;28;20021;-50
2022/07/25 05:22:00;;;;;;;21.20;7.47;;;;;;;33.87;28.60;98413.09;5093967;28;20028;-50
2022/07/25 05:24:25;;;;;;;74.72;9.68;;;;;;;34.39;27.62;98419.81;5093806;28;20048;-49
2022/07/25 05:26:51;;;;;;;12.88;5.57;;;;;;;35.06;26.74;98429.31;5093931;28;20543;-49
2022/07/25 05:29:17;;;;;;;21.15;5.05;;;;;;;35.70;25.97;98428.53;5059059;28;20028;-49
2022/07/25 05:31:45;;;;;;;23.45;6.65;;;;;;;36.15;25.24;98427.44;5093862;28;20012;-51
2022/07/25 05:34:11;;;;;;;27.17;5.97;;;;;;;36.49;24.72;98442.91;5093826;28;20027;-50
2022/07/25 05:36:37;;;;;;;42.10;8.30;;;;;;;36.78;24.94;98438.44;5075540;28;20024;-49
2022/07/25 05:39:03;;;;;;;115.07;15.48;;;;;;;36.84;25.11;98434.16;5093632;28;20048;-49
2022/07/25 05:41:28;;;;;;;18.88;5.88;;;;;;;37.12;24.40;98438.25;5093631;28;20060;-50
2022/07/25 05:43:54;;;;;;;17.92;5.70;;;;;;;37.67;23.10;98440.00;5075359;28;20070;-50
2022/07/25 05:46:20;;;;;;;41.75;8.88;;;;;;;38.07;23.24;98446.34;5093529;28;20035;-49
2022/07/25 05:48:45;;;;;;;19.48;6.47;;;;;;;38.20;23.34;98436.56;5093534;28;20021;-49
2022/07/25 05:51:11;;;;;;;13.02;5.03;;;;;;;37.98;22.97;98436.53;5093467;28;20023;-50
2022/07/25 05:53:37;;;;;;;15.95;5.00;;;;;;;38.46;22.76;98442.84;5093406;28;20056;-50
2022/07/25 05:56:04;;;;;;;16.25;5.70;;;;;;;39.23;21.51;98436.78;5093314;28;20497;-50
2022/07/25 05:58:30;;;;;;;38.50;7.43;;;;;;;39.79;21.21;98437.66;5093295;28;20031;-50
2022/07/25 06:00:57;;;;;;;54.85;7.82;;;;;;;40.28;20.92;98452.22;5093273;28;20034;-49
2022/07/25 06:03:26;;;;;;;42.50;7.72;;;;;;;40.40;21.39;98439.97;5075064;28;20028;-50
2022/07/25 06:05:53;;;;;;;30.00;7.25;;;;;;;40.02;21.37;98436.34;5074873;28;20054;-48
2022/07/25 06:08:19;;;;;;;38.40;7.00;;;;;;;40.19;21.13;98440.16;5074992;28;20392;-50
2022/07/25 06:10:45;;;;;;;38.80;7.35;;;;;;;40.21;21.07;98446.81;5074781;28;20028;-50
2022/07/25 06:13:10;;;;;;;25.33;5.90;;;;;;;40.12;21.13;98443.72;5092985;28;20043;-50
2022/07/25 06:15:36;;;;;;;26.60;5.63;;;;;;;40.38;20.95;98444.34;5092991;28;20031;-50
2022/07/25 06:18:02;;;;;;;31.23;6.68;;;;;;;40.14;21.16;98438.59;5074635;28;20393;-50
2022/07/25 06:20:28;;;;;;;44.45;6.35;;;;;;;40.47;21.09;98444.66;5092840;28;20111;-50
2022/07/25 06:22:54;;;;;;;37.60;6.43;;;;;;;41.06;20.54;98449.91;5092615;28;20046;-49
2022/07/25 06:25:20;;;;;;;111.55;11.02;;;;;;;41.31;20.22;98443.34;5092824;28;20028;-49
2022/07/25 06:27:46;;;;;;;22.83;5.82;;;;;;;41.34;19.52;98439.00;5092807;28;20443;-49
2022/07/25 06:30:12;;;;;;;16.48;5.10;;;;;;;41.29;19.17;98438.28;5092002;28;20098;-49
2022/07/25 06:32:38;;;;;;;10.52;4.55;;;;;;;41.29;19.09;98440.22;5092597;28;20020;-50
2022/07/25 06:35:04;;;;;;;7.97;4.40;;;;;;;41.28;18.48;98435.91;5092638;28;20371;-50
2022/07/25 06:37:30;;;;;;;19.20;5.95;;;;;;;41.19;19.37;98424.63;5074335;28;20031;-50
2022/07/25 06:39:55;;;;;;;12.40;5.00;;;;;;;41.12;18.96;98437.25;5092535;28;20020;-50
2022/07/25 06:42:21;;;;;;;8.27;4.35;;;;;;;40.52;19.39;98438.69;5092794;28;20031;-50
2022/07/25 06:44:47;;;;;;;8.32;4.95;;;;;;;40.56;19.62;98444.16;5092456;28;20016;-49
2022/07/25 06:47:12;;;;;;;5.82;4.68;;;;;;;40.74;19.08;98450.28;5074178;28;20028;-50
2022/07/25 06:49:39;;;;;;;10.52;4.65;;;;;;;40.69;19.11;98450.69;5074188;28;20024;-50
2022/07/25 06:52:05;;;;;;;8.38;4.57;;;;;;;40.93;19.07;98449.69;5074030;28;20051;-49
2022/07/25 06:54:31;;;;;;;8.82;4.50;;;;;;;41.10;18.66;98450.66;5092314;28;20520;-50
2022/07/25 06:56:57;;;;;;;8.10;4.97;;;;;;;41.89;18.11;98455.13;5092225;28;20028;-50
2022/07/25 06:59:23;;;;;;;8.85;4.32;;;;;;;42.42;17.75;98452.75;5074021;28;20024;-50
2022/07/25 07:01:49;;;;;;;16.70;7.03;;;;;;;42.45;18.23;98451.13;5074037;28;20032;-50
2022/07/25 07:04:14;;;;;;;6.20;4.00;;;;;;;42.57;17.36;98456.03;5074022;28;20039;-50
2022/07/25 07:06:40;;;;;;;6.75;4.25;;;;;;;42.54;17.18;98458.84;5092134;28;20028;-50
2022/07/25 07:09:06;;;;;;;8.23;4.10;;;;;;;42.87;16.94;98468.13;5092092;28;20027;-50
2022/07/25 07:11:33;;;;;;;10.18;4.93;;;;;;;43.13;16.85;98468.41;5073907;28;20088;-49
2022/07/25 07:14:01;;;;;;;29.52;5.65;;;;;;;43.35;17.09;98463.25;5092168;28;20028;-50
2022/07/25 07:16:27;;;;;;;17.08;5.32;;;;;;;43.43;17.94;98459.13;5091984;28;20028;-49
2022/07/25 07:18:53;;;;;;;11.55;4.47;;;;;;;43.37;18.40;98467.16;5073765;28;20024;-49
2022/07/25 07:21:22;;;;;;;16.60;4.70;;;;;;;43.77;17.49;98469.03;5091935;28;20024;-48
2022/07/25 07:23:47;;;;;;;25.90;4.88;;;;;;;44.23;17.23;98473.50;5091722;28;20523;-50
2022/07/25 07:26:13;;;;;;;23.38;5.95;;;;;;;44.45;16.89;98475.69;5091854;28;20059;-49
2022/07/25 07:28:39;;;;;;;9.50;4.32;;;;;;;44.05;17.65;98484.19;5091829;28;20036;-48
2022/07/25 07:31:05;;;;;;;15.65;5.22;;;;;;;43.61;18.19;98478.84;5091823;28;20024;-48
2022/07/25 07:33:32;;;;;;;29.42;7.28;;;;;;;43.42;19.04;98487.97;5091745;28;20073;-49
2022/07/25 07:35:58;;;;;;;14.90;4.43;;;;;;;43.33;18.95;98485.78;5091667;28;20028;-48
2022/07/25 07:38:25;;;;;;;18.73;5.43;;;;;;;43.45;18.94;98496.19;5091848;28;20047;-47
2022/07/25 07:40:51;;;;;;;22.38;5.70;;;;;;;43.33;18.95;98484.97;5092730;28;20023;-47
2022/07/25 07:43:17;;;;;;;22.08;5.85;;;;;;;43.03;19.24;98484.78;5077790;28;20026;-49
2022/07/25 07:45:43;;;;;;;10.30;3.60;;;;;;;43.54;17.48;98489.28;5095816;28;20028;-49
2022/07/25 07:48:08;;;;;;;10.82;4.05;;;;;;;43.47;16.59;98479.94;5077689;28;20081;-48
2022/07/25 07:50:37;;;;;;;17.95;4.78;;;;;;;43.61;17.09;98478.84;5095829;28;20046;-48
2022/07/25 07:53:05;;;;;;;32.80;6.18;;;;;;;44.21;16.97;98484.22;5077946;28;20062;-47
2022/07/25 07:55:43;;;;;;;19.45;5.32;;;;;;;44.55;16.84;98480.22;5095914;28;20366;-48
2022/07/25 07:58:16;;;;;;;16.83;4.38;;;;;;;44.61;16.38;98484.00;5095733;28;20047;-49
2022/07/25 08:00:44;;;;;;;15.07;4.38;;;;;;;44.56;15.97;98481.78;5077464;28;20401;-49
2022/07/25 08:03:10;;;;;;;6.68;3.60;;;;;;;44.14;15.83;98478.09;5095482;28;20032;-49
2022/07/25 08:05:41;;;;;;;6.32;3.45;;;;;;;43.65;16.53;98471.25;5095552;28;20022;-48
2022/07/25 08:08:09;;;;;;;16.67;4.05;;;;;;;43.43;16.61;98468.19;5077237;28;20058;-49
2022/07/25 08:10:39;;;;;;;7.25;3.85;;;;;;;43.09;16.68;98472.03;5095371;28;20489;-49
2022/07/25 08:13:13;;;;;;;6.30;3.97;;;;;;;43.09;16.50;98476.78;5077060;28;20095;-49
2022/07/25 08:15:38;;;;;;;5.78;3.58;;;;;;;43.29;16.50;98482.31;5095286;28;20420;-48
2022/07/25 08:18:04;;;;;;;6.55;3.80;;;;;;;43.66;16.27;98477.56;5095199;28;20024;-49
2022/07/25 08:20:30;;;;;;;16.17;4.07;;;;;;;44.36;15.64;98481.09;5095253;28;20026;-49
2022/07/25 08:22:56;;;;;;;10.73;4.32;;;;;;;45.08;15.19;98473.66;5094954;28;20101;-50
2022/07/25 08:25:22;;;;;;;7.63;3.80;;;;;;;45.14;15.05;98474.69;5077087;28;20047;-49
2022/07/25 08:27:48;;;;;;;13.63;4.47;;;;;;;45.51;15.05;98489.06;5095322;28;20032;-50
2022/07/25 08:30:16;;;;;;;4.88;3.28;;;;;;;45.43;14.51;98478.19;5095061;28;20102;-50
2022/07/25 08:33:02;;;;;;;15.20;4.85;;;;;;;46.31;14.57;98475.06;5095181;28;20454;-49
2022/07/25 08:35:29;;;;;;;13.50;4.38;;;;;;;46.85;13.87;98473.25;5095101;28;20111;-49
2022/07/25 08:37:55;;;;;;;14.63;4.03;;;;;;;47.14;13.24;98477.75;5094912;28;20024;-50
2022/07/25 08:40:22;;;;;;;21.55;4.38;;;;;;;47.15;13.08;98465.41;5076718;28;20115;-49
2022/07/25 08:42:49;;;;;;;11.90;3.85;;;;;;;47.42;13.36;98473.13;5094802;28;20028;-49
2022/07/25 08:45:18;;;;;;;23.73;4.03;;;;;;;47.28;13.00;98460.56;5094749;28;20044;-50
2022/07/25 08:47:49;;;;;;;13.90;4.43;;;;;;;47.16;13.71;98469.75;5095024;28;20389;-49
2022/07/25 08:50:21;;;;;;;21.10;5.15;;;;;;;47.34;13.28;98471.88;5076516;28;20031;-49
2022/07/25 08:52:49;;;;;;;23.30;4.80;;;;;;;47.30;13.52;98472.00;5075632;28;20035;-49
2022/07/25 08:55:20;;;;;;;12.48;4.18;;;;;;;47.16;13.17;98461.41;5094553;28;20259;-50
2022/07/25 08:57:52;;;;;;;23.73;4.38;;;;;;;47.20;13.45;98462.06;5076403;28;20031;-48
2022/07/25 09:00:23;;;;;;;27.80;5.32;;;;;;;47.75;13.10;98456.75;5094786;28;20378;-47
2022/07/25 09:03:00;;;;;;;12.65;4.07;;;;;;;48.30;11.97;98452.56;5094506;28;20024;-49
2022/07/25 09:05:28;;;;;;;11.07;3.40;;;;;;;48.70;11.63;98455.25;5094457;28;20031;-50
2022/07/25 09:07:55;;;;;;;12.65;3.53;;;;;;;49.07;12.03;98457.97;5094330;28;20048;-52
2022/07/25 09:10:25;;;;;;;14.20;3.80;;;;;;;49.52;11.24;98456.28;5094306;28;20030;-52
2022/07/25 09:12:55;;;;;;;10.70;3.72;;;;;;;49.93;11.48;98458.75;5094223;28;20023;-50
2022/07/25 09:15:52;;;;;;;18.10;3.72;;;;;;;50.50;11.04;98458.66;5094200;28;20077;-50
2022/07/25 09:18:24;;;;;;;10.82;3.72;;;;;;;50.88;10.54;98456.31;5086321;28;20067;-52
2022/07/25 09:20:57;;;;;;;5.47;3.45;;;;;;;50.92;10.30;98457.66;5094134;28;20031;-52
2022/07/25 09:23:35;;;;;;;7.20;3.38;;;;;;;51.12;10.06;98451.41;5093800;28;20513;-52
2022/07/25 09:26:02;;;;;;;8.63;3.25;;;;;;;50.36;10.06;98443.38;5094040;28;20016;-53
2022/07/25 09:28:28;;;;;;;6.97;3.65;;;;;;;49.70;10.71;98447.03;5093937;28;20027;-52
2022/07/25 09:30:56;;;;;;;5.22;3.03;;;;;;;49.37;10.88;98449.84;5093882;28;20025;-52
2022/07/25 09:33:23;;;;;;;6.97;3.45;;;;;;;49.39;10.49;98441.78;5093767;28;20038;-52
2022/07/25 09:35:49;;;;;;;26.13;4.63;;;;;;;49.95;10.12;98443.06;5093801;28;20034;-53
2022/07/25 09:38:17;;;;;;;9.10;3.17;;;;;;;50.16;9.59;98441.22;5075560;28;20024;-53
2022/07/25 09:40:57;;;;;;;12.15;4.03;;;;;;;50.30;9.97;98438.94;5093698;28;20016;-53
2022/07/25 09:43:34;;;;;;;8.00;3.45;;;;;;;49.93;10.91;98444.78;5075533;28;20137;-53
2022/07/25 09:46:00;;;;;;;9.88;3.33;;;;;;;49.82;10.60;98442.50;5093646;28;20444;-53
2022/07/25 09:48:26;;;;;;;26.10;4.35;;;;;;;49.84;10.44;98440.00;5058769;28;20047;-52
2022/07/25 09:50:53;;;;;;;16.50;3.97;;;;;;;49.47;10.70;98443.00;5075323;28;20035;-51
2022/07/25 09:53:19;;;;;;;38.83;6.00;;;;;;;49.19;10.61;98445.84;5093304;28;20032;-53
2022/07/25 09:55:45;;;;;;;10.10;3.10;;;;;;;49.56;10.15;98436.59;5093378;28;20034;-52
2022/07/25 09:58:12;;;;;;;7.15;3.13;;;;;;;49.69;10.25;98434.34;5075199;28;20032;-52
2022/07/25 10:00:40;;;;;;;9.00;3.33;;;;;;;49.38;10.01;98438.22;5075102;28;20110;-52
2022/07/25 10:03:14;;;;;;;6.15;3.30;;;;;;;49.20;9.76;98427.09;5093226;28;20486;-52
2022/07/25 10:05:55;;;;;;;6.38;3.30;;;;;;;48.56;10.81;98417.63;5092380;28;20027;-52
2022/07/25 10:08:23;;;;;;;9.40;3.60;;;;;;;48.07;10.93;98421.28;5093444;28;20360;-50
2022/07/25 10:10:49;;;;;;;6.28;3.45;;;;;;;47.64;10.40;98428.59;5074891;28;20020;-52
2022/07/25 10:13:27;;;;;;;6.10;3.67;;;;;;;47.68;10.88;98417.34;5093031;28;20053;-51
2022/07/25 10:15:53;;;;;;;10.40;3.60;;;;;;;47.72;10.63;98429.09;5093058;28;20051;-51
2022/07/25 10:18:26;;;;;;;7.72;3.60;;;;;;;47.96;10.56;98423.78;5074777;28;20055;-52
2022/07/25 10:20:55;;;;;;;13.05;3.90;;;;;;;48.36;10.74;98423.66;5092963;28;20059;-52
2022/07/25 10:23:23;;;;;;;9.00;3.90;;;;;;;48.45;10.45;98413.75;5092403;28;20044;-51
2022/07/25 10:26:12;;;;;;;4.68;3.45;;;;;;;49.05;10.31;98418.66;5092850;28;20046;-51
2022/07/25 10:28:40;;;;;;;5.97;3.20;;;;;;;49.43;10.17;98408.16;5093063;28;20122;-52
2022/07/25 10:31:33;;;;;;;8.85;3.38;;;;;;;49.63;9.88;98411.13;5092770;28;20024;-53
2022/07/25 10:34:01;;;;;;;;;;;;;;;49.83;10.13;98413.38;5093124;28;20077;-51
2022/07/25 10:36:40;;;;;;;8.00;3.80;;;;;;;49.62;9.81;98406.03;5092613;28;19916;-53
2022/07/25 10:39:10;;;;;;;6.85;3.50;;;;;;;49.28;10.11;98403.22;5092630;28;20148;-52
2022/07/25 10:41:41;;;;;;;8.05;3.70;;;;;;;49.25;10.17;98401.38;5074311;28;20027;-52
2022/07/25 10:44:15;;;;;;;71.38;7.25;;;;;;;49.45;10.56;98400.84;5092516;28;20031;-52
2022/07/25 10:46:45;;;;;;;11.63;3.45;;;;;;;49.59;10.42;98399.38;5092494;28;20103;-53
2022/07/25 10:49:26;;;;;;;5.25;3.28;;;;;;;49.41;9.96;98396.72;5092789;28;20059;-53
2022/07/25 10:51:58;;;;;;;8.57;3.10;;;;;;;49.18;10.28;98387.78;5092439;28;20102;-53
2022/07/25 10:54:23;;;;;;;10.77;4.13;;;;;;;49.16;10.41;98384.69;5074346;28;20066;-51
2022/07/25 10:56:58;;;;;;;9.50;3.70;;;;;;;49.36;10.11;98382.13;5074056;28;20035;-53
2022/07/25 10:59:33;;;;;;;8.38;3.75;;;;;;;49.60;10.00;98386.97;5057516;28;20032;-53
2022/07/25 11:02:00;;;;;;;64.95;7.28;;;;;;;49.15;10.34;98385.94;5092257;28;20036;-53
2022/07/25 11:04:26;;;;;;;5.72;3.50;;;;;;;49.11;10.82;98382.56;5092199;28;20066;-53
2022/07/25 11:06:52;;;;;;;44.60;5.88;;;;;;;49.00;10.78;98374.66;5074220;28;20101;-52
2022/07/25 11:09:24;;;;;;;21.50;5.15;;;;;;;48.82;10.75;98378.25;5092152;28;20489;-52
2022/07/25 11:11:53;;;;;;;5.30;3.65;;;;;;;48.77;10.49;98382.47;5092009;28;20027;-51
2022/07/25 11:14:25;;;;;;;10.30;3.70;;;;;;;49.16;10.78;98376.31;5091986;28;20051;-53
2022/07/25 11:16:54;;;;;;;17.33;4.80;;;;;;;49.14;11.21;98371.25;5091896;28;20107;-51
2022/07/25 11:19:24;;;;;;;13.45;3.90;;;;;;;49.42;10.62;98367.56;5092010;28;20028;-51
2022/07/25 11:21:53;;;;;;;13.25;3.33;;;;;;;49.71;10.15;98364.13;5091933;28;20028;-52
2022/07/25 11:24:19;;;;;;;19.50;5.28;;;;;;;49.64;10.39;98375.63;5091694;28;20051;-53
2022/07/25 11:26:50;;;;;;;8.65;3.80;;;;;;;49.67;10.44;98369.88;5091901;28;20020;-51
2022/07/25 11:29:26;;;;;;;20.85;5.88;;;;;;;50.14;10.08;98359.97;5073797;28;20123;-50